Time;durP1;ratioP1;P1;durP2;ratioP2;P2;SDS_P1;SDS_P2;PMS_P1;PMS_P2;Temp;Humidity;BMP_temperature;BMP_pressure;BME280_temperature;BME280_humidity;BME280_pressure;Samples;Min_cycle;Max_cycle;Signal;HPM_P1;HPM_P2
2021/10/24 00:01:32;;;;;;;19.80;15.40;;;8.20;99.90;;;;;;5023062;28;37347;-72
2021/10/24 00:04:00;;;;;;;21.43;14.73;;;8.20;99.90;;;;;;5020813;28;37323;-72
2021/10/24 00:06:26;;;;;;;23.20;18.27;;;8.20;99.90;;;;;;5004368;28;38162;-73
2021/10/24 00:08:52;;;;;;;24.60;17.80;;;8.20;99.90;;;;;;5020403;28;39760;-72
2021/10/24 00:11:18;;;;;;;23.30;17.27;;;8.10;99.90;;;;;;5021467;28;38163;-72
2021/10/24 00:13:44;;;;;;;29.27;18.70;;;8.10;99.90;;;;;;5012390;28;38676;-72
2021/10/24 00:16:10;;;;;;;22.03;15.27;;;8.00;99.90;;;;;;5013575;28;40212;-73
2021/10/24 00:18:36;;;;;;;20.77;15.53;;;8.00;99.90;;;;;;5009913;28;39133;-73
2021/10/24 00:21:02;;;;;;;23.67;17.90;;;8.00;99.90;;;;;;5010257;28;39195;-73
2021/10/24 00:23:29;;;;;;;32.20;18.20;;;8.00;99.90;;;;;;5012148;28;37147;-72
2021/10/24 00:25:56;;;;;;;20.90;16.30;;;8.00;99.90;;;;;;5010750;28;39388;-72
2021/10/24 00:28:22;;;;;;;26.73;20.23;;;8.00;99.90;;;;;;5009477;28;39606;-72
2021/10/24 00:30:49;;;;;;;21.13;15.87;;;8.00;99.90;;;;;;5012822;28;40200;-72
2021/10/24 00:33:16;;;;;;;25.10;18.10;;;8.00;99.90;;;;;;5012137;28;37666;-72
2021/10/24 00:35:42;;;;;;;21.70;15.53;;;7.90;99.90;;;;;;5016089;28;39320;-72
2021/10/24 00:38:09;;;;;;;25.17;17.50;;;7.90;99.90;;;;;;5010734;28;39901;-72
2021/10/24 00:40:35;;;;;;;30.87;18.67;;;7.90;99.90;;;;;;5011223;28;39190;-71
2021/10/24 00:43:02;;;;;;;27.10;20.23;;;7.90;99.90;;;;;;5009810;28;37765;-73
2021/10/24 00:45:28;;;;;;;27.20;20.93;;;7.90;99.90;;;;;;5006502;28;38269;-72
2021/10/24 00:47:55;;;;;;;25.60;18.00;;;7.90;99.90;;;;;;5013090;28;40304;-72
2021/10/24 00:50:23;;;;;;;26.37;18.70;;;7.90;99.90;;;;;;5004681;28;39310;-72
2021/10/24 00:52:49;;;;;;;28.33;19.93;;;7.90;99.90;;;;;;5014815;28;37261;-72
2021/10/24 00:55:16;;;;;;;26.97;19.37;;;7.90;99.90;;;;;;5011142;28;39932;-72
2021/10/24 00:57:43;;;;;;;24.60;18.30;;;7.90;99.90;;;;;;5016793;28;39733;-73
2021/10/24 01:00:12;;;;;;;29.43;20.37;;;7.90;99.90;;;;;;5013777;28;39161;-72
2021/10/24 01:02:39;;;;;;;30.60;22.40;;;7.90;99.90;;;;;;5014407;28;38049;-72
2021/10/24 01:05:07;;;;;;;29.70;21.73;;;7.80;99.90;;;;;;5013228;28;38766;-72
2021/10/24 01:07:35;;;;;;;27.03;19.80;;;7.80;99.90;;;;;;5019720;28;39039;-71
2021/10/24 01:10:02;;;;;;;23.03;19.20;;;7.80;99.90;;;;;;5035929;28;38920;-71
2021/10/24 01:12:28;;;;;;;23.70;17.77;;;7.70;99.90;;;;;;5018452;28;48681;-71
2021/10/24 01:14:54;;;;;;;28.27;19.70;;;7.70;99.90;;;;;;5017445;28;39531;-71
2021/10/24 01:17:21;;;;;;;28.50;17.87;;;7.60;99.90;;;;;;5014548;28;39325;-71
2021/10/24 01:19:48;;;;;;;24.20;17.97;;;7.50;99.90;;;;;;5015529;28;39926;-71
2021/10/24 01:22:14;;;;;;;32.33;20.57;;;7.40;99.90;;;;;;5012613;28;37269;-71
2021/10/24 01:24:40;;;;;;;28.33;19.57;;;7.40;99.90;;;;;;5012315;28;39960;-71
2021/10/24 01:27:06;;;;;;;24.00;17.17;;;7.40;99.90;;;;;;5019381;28;39152;-71
2021/10/24 01:29:32;;;;;;;23.73;16.27;;;7.30;99.90;;;;;;5016121;28;38908;-71
2021/10/24 01:31:58;;;;;;;25.27;18.87;;;7.30;99.90;;;;;;5017469;28;38151;-70
2021/10/24 01:34:24;;;;;;;27.43;20.13;;;7.20;99.90;;;;;;5013050;28;38695;-71
2021/10/24 01:36:50;;;;;;;24.03;17.60;;;7.10;99.90;;;;;;5013225;28;39433;-71
2021/10/24 01:39:16;;;;;;;21.00;16.33;;;7.00;99.90;;;;;;5013689;28;39746;-70
2021/10/24 01:41:42;;;;;;;24.60;18.20;;;7.00;99.90;;;;;;5014409;28;38202;-70
2021/10/24 01:44:09;;;;;;;25.27;17.80;;;7.00;99.90;;;;;;5016940;28;38445;-70
2021/10/24 01:46:35;;;;;;;23.37;17.70;;;6.90;99.90;;;;;;5012825;28;39058;-70
2021/10/24 01:49:01;;;;;;;28.67;19.27;;;6.90;99.90;;;;;;5019315;28;38214;-71
2021/10/24 01:51:27;;;;;;;25.97;16.63;;;6.90;99.90;;;;;;5015819;28;48824;-70
2021/10/24 01:53:53;;;;;;;23.97;17.73;;;6.80;99.90;;;;;;5022148;28;39518;-70
2021/10/24 01:56:19;;;;;;;22.77;16.63;;;6.80;99.90;;;;;;5018049;28;39487;-71
2021/10/24 01:58:46;;;;;;;23.47;18.20;;;6.80;99.90;;;;;;5015811;28;38104;-71
2021/10/24 02:01:12;;;;;;;29.13;19.53;;;6.70;99.90;;;;;;5013846;28;37757;-70
2021/10/24 02:03:38;;;;;;;24.43;18.40;;;6.70;99.90;;;;;;5013438;28;39641;-70
2021/10/24 02:06:05;;;;;;;22.47;16.23;;;6.70;99.90;;;;;;5013635;28;39862;-70
2021/10/24 02:08:32;;;;;;;23.10;17.33;;;6.60;99.90;;;;;;5013366;28;38953;-71
2021/10/24 02:10:59;;;;;;;25.23;18.53;;;6.60;99.90;;;;;;5017418;28;38911;-70
2021/10/24 02:13:25;;;;;;;23.10;17.20;;;6.50;99.90;;;;;;5018199;28;38977;-71
2021/10/24 02:15:51;;;;;;;20.87;16.20;;;6.50;99.90;;;;;;5012604;28;39016;-71
2021/10/24 02:18:17;;;;;;;24.03;15.27;;;6.50;99.90;;;;;;5013801;28;39143;-71
2021/10/24 02:20:44;;;;;;;22.87;17.30;;;6.50;99.90;;;;;;5019567;28;36295;-71
2021/10/24 02:23:10;;;;;;;24.47;18.67;;;6.50;99.90;;;;;;5016970;28;39570;-71
2021/10/24 02:25:38;;;;;;;28.40;17.87;;;6.50;99.90;;;;;;5013725;28;38314;-70
2021/10/24 02:28:04;;;;;;;26.67;16.27;;;6.50;99.90;;;;;;5015549;28;38932;-71
2021/10/24 02:30:30;;;;;;;24.47;17.77;;;6.50;99.90;;;;;;5011308;28;38000;-71
2021/10/24 02:32:57;;;;;;;20.67;16.30;;;6.40;99.90;;;;;;5015398;28;38730;-71
2021/10/24 02:35:25;;;;;;;22.90;16.27;;;6.40;99.90;;;;;;5010392;28;40314;-71
2021/10/24 02:37:53;;;;;;;26.57;19.70;;;6.30;99.90;;;;;;5018899;28;38572;-70
2021/10/24 02:40:19;;;;;;;22.00;15.47;;;6.30;99.90;;;;;;5011529;28;39088;-70
2021/10/24 02:42:48;;;;;;;26.17;19.97;;;6.30;99.90;;;;;;5009873;28;39766;-70
2021/10/24 02:45:15;;;;;;;19.70;14.17;;;6.30;99.90;;;;;;5010355;28;39213;-71
2021/10/24 02:47:41;;;;;;;23.30;17.70;;;6.30;99.90;;;;;;5010836;28;39490;-70
2021/10/24 02:50:08;;;;;;;22.67;16.07;;;6.20;99.90;;;;;;5012981;28;38131;-70
2021/10/24 02:52:34;;;;;;;22.07;17.57;;;6.20;99.90;;;;;;5014805;28;39686;-70
2021/10/24 02:55:01;;;;;;;28.67;20.33;;;6.20;99.90;;;;;;5014044;28;38028;-70
2021/10/24 02:57:28;;;;;;;24.33;16.87;;;6.10;99.90;;;;;;5009722;28;37093;-70
2021/10/24 02:59:55;;;;;;;22.53;17.73;;;6.10;99.90;;;;;;5036002;28;36793;-70
2021/10/24 03:02:21;;;;;;;25.67;17.90;;;6.10;99.90;;;;;;5010377;28;37479;-70
2021/10/24 03:04:47;;;;;;;23.13;17.27;;;6.10;99.90;;;;;;5009396;28;39538;-70
2021/10/24 03:07:14;;;;;;;28.33;20.43;;;6.00;99.90;;;;;;5012091;28;37595;-70
2021/10/24 03:09:40;;;;;;;26.17;17.50;;;6.10;99.90;;;;;;5018115;28;38547;-70
2021/10/24 03:12:06;;;;;;;28.17;20.03;;;6.10;99.90;;;;;;5013263;28;38599;-70
2021/10/24 03:14:32;;;;;;;25.20;19.13;;;6.10;99.90;;;;;;5014656;28;39871;-70
2021/10/24 03:16:58;;;;;;;23.67;18.10;;;6.00;99.90;;;;;;5014934;28;39119;-70
2021/10/24 03:19:26;;;;;;;22.10;16.57;;;6.00;99.90;;;;;;5036489;28;37387;-70
2021/10/24 03:21:52;;;;;;;23.50;18.00;;;6.00;99.90;;;;;;5035432;28;38896;-71
2021/10/24 03:24:19;;;;;;;23.47;17.20;;;6.00;99.90;;;;;;5035777;28;38878;-71
2021/10/24 03:26:45;;;;;;;21.60;17.50;;;6.00;99.90;;;;;;5030472;28;38521;-71
2021/10/24 03:29:12;;;;;;;21.97;17.03;;;6.10;99.90;;;;;;5033934;28;37010;-71
2021/10/24 03:31:38;;;;;;;22.40;18.33;;;6.10;99.90;;;;;;5015039;28;39654;-71
2021/10/24 03:34:04;;;;;;;23.60;18.70;;;6.20;99.90;;;;;;5036285;28;39972;-70
2021/10/24 03:36:30;;;;;;;34.20;23.27;;;6.40;99.90;;;;;;5034462;28;38869;-71
2021/10/24 03:38:56;;;;;;;36.93;24.30;;;6.50;99.90;;;;;;5033525;28;37410;-70
2021/10/24 03:41:22;;;;;;;33.80;23.00;;;6.60;99.90;;;;;;5022810;28;38890;-71
2021/10/24 03:43:48;;;;;;;31.90;24.10;;;6.70;99.90;;;;;;5027133;28;38552;-70
2021/10/24 03:46:14;;;;;;;30.30;22.73;;;6.80;99.90;;;;;;5035280;28;38499;-70
2021/10/24 03:48:40;;;;;;;28.47;20.33;;;6.80;99.90;;;;;;5012461;28;36865;-71
2021/10/24 03:51:06;;;;;;;36.63;26.07;;;6.80;99.90;;;;;;5008486;28;39382;-71
2021/10/24 03:53:32;;;;;;;34.20;23.23;;;6.80;99.90;;;;;;5013202;28;39099;-71
2021/10/24 03:55:58;;;;;;;37.27;25.93;;;6.80;99.90;;;;;;5031002;28;36940;-71
2021/10/24 03:58:26;;;;;;;34.40;23.57;;;6.80;99.90;;;;;;5008906;28;37882;-71
2021/10/24 04:00:52;;;;;;;24.07;18.90;;;6.80;99.90;;;;;;5013275;28;39363;-71
2021/10/24 04:03:18;;;;;;;37.13;23.30;;;6.70;99.90;;;;;;5038165;28;38842;-71
2021/10/24 04:05:49;;;;;;;33.77;23.50;;;6.70;99.90;;;;;;5031242;28;39111;-71
2021/10/24 04:08:16;;;;;;;34.37;24.53;;;6.60;99.90;;;;;;5010487;28;38222;-71
2021/10/24 04:10:43;;;;;;;29.03;21.67;;;6.60;99.90;;;;;;5036633;28;38966;-71
2021/10/24 04:13:09;;;;;;;26.97;20.77;;;6.60;99.90;;;;;;5015573;28;39658;-71
2021/10/24 04:15:35;;;;;;;33.43;22.23;;;6.50;99.90;;;;;;5016848;28;39058;-71
2021/10/24 04:18:01;;;;;;;32.90;22.40;;;6.50;99.90;;;;;;5035305;28;38032;-71
2021/10/24 04:20:27;;;;;;;36.50;24.63;;;6.40;99.90;;;;;;5019213;28;39695;-71
2021/10/24 04:22:54;;;;;;;26.17;20.87;;;6.30;99.90;;;;;;5037006;28;38627;-71
2021/10/24 04:25:21;;;;;;;31.83;22.93;;;6.30;99.90;;;;;;5015467;28;38900;-71
2021/10/24 04:27:47;;;;;;;33.57;24.43;;;6.30;99.90;;;;;;5028547;28;37701;-71
2021/10/24 04:30:13;;;;;;;35.17;24.40;;;6.20;99.90;;;;;;5014430;28;39594;-71
2021/10/24 04:32:41;;;;;;;31.07;23.87;;;6.20;99.90;;;;;;5024680;28;37936;-71
2021/10/24 04:35:08;;;;;;;30.83;22.07;;;6.30;99.90;;;;;;5016118;28;38770;-71
2021/10/24 04:37:34;;;;;;;25.07;20.07;;;6.20;99.90;;;;;;5007461;28;38329;-71
2021/10/24 04:40:00;;;;;;;31.20;22.57;;;6.20;99.90;;;;;;5010787;28;39488;-70
2021/10/24 04:42:26;;;;;;;29.17;19.53;;;6.20;99.90;;;;;;5003452;28;39165;-71
2021/10/24 04:44:52;;;;;;;32.80;22.33;;;6.20;99.90;;;;;;5014514;28;39492;-71
2021/10/24 04:47:19;;;;;;;32.43;25.30;;;6.30;99.90;;;;;;5009757;28;37721;-71
2021/10/24 04:49:45;;;;;;;24.27;19.03;;;6.40;99.90;;;;;;5013571;28;40867;-70
2021/10/24 04:52:11;;;;;;;29.50;21.43;;;6.30;99.90;;;;;;5007422;28;37872;-71
2021/10/24 04:54:37;;;;;;;33.73;24.03;;;6.30;99.90;;;;;;5020792;28;37262;-71
2021/10/24 04:57:04;;;;;;;37.57;27.10;;;6.40;99.90;;;;;;5013271;28;38805;-71
2021/10/24 04:59:30;;;;;;;26.63;18.97;;;6.40;99.90;;;;;;5034952;28;39006;-71
2021/10/24 05:01:56;;;;;;;24.93;19.50;;;6.40;99.90;;;;;;5034018;28;38789;-71
2021/10/24 05:04:22;;;;;;;28.10;19.23;;;6.50;99.90;;;;;;5008954;28;38894;-71
2021/10/24 05:06:49;;;;;;;33.37;22.13;;;6.50;99.90;;;;;;5032819;28;37122;-71
2021/10/24 05:09:15;;;;;;;28.00;20.70;;;6.60;99.90;;;;;;5012718;28;40614;-71
2021/10/24 05:11:41;;;;;;;32.57;23.97;;;6.60;99.90;;;;;;5003732;28;39495;-71
2021/10/24 05:14:08;;;;;;;37.37;26.53;;;6.60;99.90;;;;;;5012977;28;39718;-71
2021/10/24 05:16:34;;;;;;;29.00;22.27;;;6.70;99.90;;;;;;5009387;28;37104;-71
2021/10/24 05:19:01;;;;;;;38.93;27.20;;;6.70;99.90;;;;;;5012219;28;39179;-72
2021/10/24 05:21:27;;;;;;;31.33;22.17;;;6.80;99.90;;;;;;5008012;28;48166;-71
2021/10/24 05:23:53;;;;;;;25.30;18.60;;;6.80;99.90;;;;;;5011651;28;39521;-71
2021/10/24 05:26:19;;;;;;;28.50;21.40;;;6.70;99.90;;;;;;5010422;28;37785;-71
2021/10/24 05:28:45;;;;;;;30.03;19.90;;;6.70;99.90;;;;;;5011096;28;37304;-71
2021/10/24 05:31:12;;;;;;;33.07;22.23;;;6.70;99.90;;;;;;5012406;28;39726;-71
2021/10/24 05:33:38;;;;;;;35.67;23.87;;;6.70;99.90;;;;;;5010578;28;39995;-71
2021/10/24 05:36:04;;;;;;;33.13;23.97;;;6.70;99.90;;;;;;5013637;28;38610;-71
2021/10/24 05:38:30;;;;;;;29.33;22.23;;;6.80;99.90;;;;;;5009914;28;40567;-71
2021/10/24 05:40:56;;;;;;;31.20;23.03;;;6.80;99.90;;;;;;5013478;28;37395;-70
2021/10/24 05:43:23;;;;;;;30.47;21.57;;;6.70;99.90;;;;;;5012589;28;37946;-71
2021/10/24 05:45:50;;;;;;;26.27;19.13;;;6.80;99.90;;;;;;5010137;28;38728;-71
2021/10/24 05:48:17;;;;;;;22.70;18.03;;;6.80;99.90;;;;;;5014680;28;38880;-72
2021/10/24 05:50:43;;;;;;;31.70;22.80;;;6.70;99.90;;;;;;5011073;28;39131;-71
2021/10/24 05:53:09;;;;;;;30.73;21.80;;;6.80;99.90;;;;;;5037053;28;39197;-72
2021/10/24 05:55:36;;;;;;;28.00;20.53;;;6.80;99.90;;;;;;5015102;28;38005;-71
2021/10/24 05:58:03;;;;;;;28.37;19.53;;;6.90;99.90;;;;;;5012622;28;38324;-72
2021/10/24 06:00:31;;;;;;;30.13;21.37;;;6.80;99.90;;;;;;5012793;28;40496;-71
2021/10/24 06:03:08;;;;;;;30.07;21.90;;;6.80;99.90;;;;;;5019194;28;38496;-72
2021/10/24 06:05:35;;;;;;;29.77;20.83;;;6.80;99.90;;;;;;5013844;28;48602;-71
2021/10/24 06:08:02;;;;;;;24.40;18.03;;;6.80;99.90;;;;;;5016567;28;38737;-71
2021/10/24 06:10:34;;;;;;;32.63;23.77;;;6.70;99.90;;;;;;5010307;28;48587;-71
2021/10/24 06:13:01;;;;;;;26.67;19.07;;;6.80;99.90;;;;;;5016225;28;38340;-71
2021/10/24 06:15:27;;;;;;;26.87;19.57;;;6.70;99.90;;;;;;5019448;28;47269;-71
2021/10/24 06:17:54;;;;;;;29.73;20.67;;;6.70;99.90;;;;;;5014538;28;39807;-71
2021/10/24 06:20:22;;;;;;;28.33;19.70;;;6.70;99.90;;;;;;5018170;28;39056;-71
2021/10/24 06:22:48;;;;;;;32.27;22.37;;;6.80;99.90;;;;;;5033207;28;36263;-71
2021/10/24 06:25:17;;;;;;;24.10;18.63;;;6.90;99.90;;;;;;5017429;28;38152;-71
2021/10/24 06:27:43;;;;;;;28.00;19.20;;;6.90;99.90;;;;;;5030438;28;38697;-71
2021/10/24 06:30:12;;;;;;;29.80;18.37;;;7.00;99.90;;;;;;5019461;28;39405;-71
2021/10/24 06:32:38;;;;;;;30.53;19.60;;;6.90;99.90;;;;;;5027308;28;38428;-71
2021/10/24 06:35:05;;;;;;;27.67;17.97;;;7.00;99.90;;;;;;5033907;28;37237;-72
2021/10/24 06:37:45;;;;;;;27.87;18.43;;;7.00;99.90;;;;;;5035674;28;38629;-72
2021/10/24 06:40:14;;;;;;;21.77;17.40;;;7.00;99.90;;;;;;5040140;28;38912;-71
2021/10/24 06:42:41;;;;;;;25.57;20.67;;;6.90;99.90;;;;;;5015301;28;37796;-71
2021/10/24 06:45:08;;;;;;;30.63;21.10;;;6.90;99.90;;;;;;5018615;28;36436;-71
2021/10/24 06:47:35;;;;;;;22.70;17.17;;;6.90;99.90;;;;;;5010918;28;41579;-71
2021/10/24 06:50:02;;;;;;;26.13;17.63;;;6.90;99.90;;;;;;5019301;28;39719;-71
2021/10/24 06:52:28;;;;;;;29.27;19.23;;;6.90;99.90;;;;;;5030574;28;48662;-71
2021/10/24 06:54:55;;;;;;;23.57;16.60;;;6.90;99.90;;;;;;5026582;28;38381;-71
2021/10/24 06:57:22;;;;;;;24.97;18.53;;;6.90;99.90;;;;;;5023068;28;38299;-71
2021/10/24 06:59:49;;;;;;;28.93;18.77;;;6.90;99.90;;;;;;5016167;28;38262;-71
2021/10/24 07:02:17;;;;;;;16.63;11.70;;;6.90;99.90;;;;;;5034192;28;38894;-70
2021/10/24 07:04:43;;;;;;;25.10;17.63;;;7.00;99.90;;;;;;5032907;28;37595;-71
2021/10/24 07:07:09;;;;;;;23.87;17.43;;;7.10;99.90;;;;;;4997230;28;39947;-70
2021/10/24 07:09:35;;;;;;;21.60;15.77;;;7.10;99.90;;;;;;5013791;28;39464;-70
2021/10/24 07:12:01;;;;;;;25.30;17.80;;;7.00;99.90;;;;;;5015892;28;38929;-70
2021/10/24 07:14:27;;;;;;;27.90;18.03;;;7.10;99.90;;;;;;5004795;28;47388;-70
2021/10/24 07:16:54;;;;;;;26.50;15.60;;;7.10;99.90;;;;;;5015595;28;38923;-70
2021/10/24 07:19:20;;;;;;;24.03;17.13;;;7.20;99.90;;;;;;5015599;28;39307;-70
2021/10/24 07:21:46;;;;;;;21.63;17.07;;;7.20;99.90;;;;;;5012460;28;37694;-71
2021/10/24 07:24:12;;;;;;;25.47;16.70;;;7.30;99.90;;;;;;5030604;28;39449;-70
2021/10/24 07:26:38;;;;;;;23.60;16.43;;;7.30;99.90;;;;;;5016935;28;39031;-70
2021/10/24 07:29:04;;;;;;;25.17;16.47;;;7.30;99.90;;;;;;5031720;28;39298;-70
2021/10/24 07:31:30;;;;;;;20.47;14.70;;;7.40;99.90;;;;;;5032480;28;38748;-71
2021/10/24 07:33:57;;;;;;;16.20;14.03;;;7.40;99.90;;;;;;5012031;28;36320;-71
2021/10/24 07:36:23;;;;;;;21.87;16.07;;;7.40;99.90;;;;;;5002458;28;37954;-70
2021/10/24 07:38:49;;;;;;;20.33;13.27;;;7.50;99.90;;;;;;5036183;28;38761;-70
2021/10/24 07:41:16;;;;;;;31.03;16.97;;;7.40;99.90;;;;;;5015365;28;38529;-71
2021/10/24 07:43:42;;;;;;;22.03;14.60;;;7.50;99.90;;;;;;5033881;28;37180;-70
2021/10/24 07:46:08;;;;;;;22.23;14.77;;;7.60;99.90;;;;;;5027919;28;38951;-70
2021/10/24 07:48:34;;;;;;;18.43;13.97;;;7.60;99.90;;;;;;5033550;28;39962;-71
2021/10/24 07:51:01;;;;;;;24.23;16.00;;;7.70;99.90;;;;;;5034736;28;37275;-70
2021/10/24 07:53:29;;;;;;;20.73;14.87;;;7.70;99.90;;;;;;5022499;28;49057;-70
2021/10/24 07:55:56;;;;;;;19.30;14.33;;;7.80;99.90;;;;;;5014186;28;38905;-71
2021/10/24 07:58:23;;;;;;;20.83;14.10;;;7.80;99.90;;;;;;5010064;28;37281;-70
2021/10/24 08:00:50;;;;;;;29.57;14.43;;;7.90;99.90;;;;;;5012284;28;38557;-70
2021/10/24 08:03:17;;;;;;;19.30;14.10;;;8.00;99.90;;;;;;5007861;28;37533;-70
2021/10/24 08:05:43;;;;;;;16.37;13.10;;;8.00;99.90;;;;;;5017055;28;37602;-70
2021/10/24 08:08:09;;;;;;;21.97;13.90;;;8.10;99.90;;;;;;5014048;28;39850;-71
2021/10/24 08:10:36;;;;;;;19.00;12.80;;;8.20;99.90;;;;;;5011319;28;39462;-70
2021/10/24 08:13:02;;;;;;;20.43;12.77;;;8.20;99.90;;;;;;5009210;28;37491;-71
2021/10/24 08:15:29;;;;;;;13.77;11.43;;;8.30;99.90;;;;;;5010761;28;37630;-71
2021/10/24 08:17:55;;;;;;;16.90;10.67;;;8.40;99.90;;;;;;5008742;28;38662;-71
2021/10/24 08:20:21;;;;;;;17.23;11.17;;;8.40;99.90;;;;;;5017528;28;39279;-71
2021/10/24 08:22:47;;;;;;;16.97;11.37;;;8.50;99.90;;;;;;5010760;28;38136;-71
2021/10/24 08:25:14;;;;;;;15.80;12.17;;;8.50;99.90;;;;;;5011905;28;38381;-71
2021/10/24 08:27:40;;;;;;;18.17;11.50;;;8.60;99.90;;;;;;5008651;28;37916;-71
2021/10/24 08:30:10;;;;;;;17.80;10.07;;;8.70;99.90;;;;;;5011968;28;37283;-71
2021/10/24 08:32:37;;;;;;;17.73;11.27;;;8.80;99.90;;;;;;5010250;28;37665;-70
2021/10/24 08:35:07;;;;;;;15.13;10.37;;;8.80;99.90;;;;;;5014032;28;38743;-71
2021/10/24 08:37:36;;;;;;;15.60;10.37;;;8.90;99.90;;;;;;5007697;28;50370;-71
2021/10/24 08:40:05;;;;;;;14.97;10.77;;;8.90;99.90;;;;;;5010208;28;40012;-71
2021/10/24 08:42:33;;;;;;;18.67;9.97;;;9.00;99.90;;;;;;5004117;28;47241;-70
2021/10/24 08:45:01;;;;;;;18.03;10.30;;;9.00;99.90;;;;;;5018097;28;38284;-71
2021/10/24 08:47:28;;;;;;;13.67;9.83;;;9.10;99.90;;;;;;5008868;28;46651;-71
2021/10/24 08:49:55;;;;;;;14.13;8.97;;;9.10;99.90;;;;;;5014309;28;38544;-70
2021/10/24 08:52:23;;;;;;;14.80;9.57;;;9.20;99.90;;;;;;5018337;28;37336;-71
2021/10/24 08:54:53;;;;;;;11.80;8.17;;;9.20;99.90;;;;;;5022996;28;38588;-71
2021/10/24 08:57:23;;;;;;;11.87;8.70;;;9.30;99.90;;;;;;5027574;28;38988;-71
2021/10/24 08:59:50;;;;;;;13.67;8.53;;;9.40;99.90;;;;;;5007213;28;38649;-70
2021/10/24 09:02:16;;;;;;;12.53;9.17;;;9.30;99.90;;;;;;5011319;28;36798;-71
2021/10/24 09:04:52;;;;;;;15.37;8.73;;;9.40;99.90;;;;;;5033882;28;38945;-71
2021/10/24 09:07:22;;;;;;;13.33;8.27;;;9.40;99.90;;;;;;5031491;28;39454;-71
2021/10/24 09:09:49;;;;;;;12.23;8.20;;;9.50;99.90;;;;;;5030031;28;41095;-71
2021/10/24 09:12:16;;;;;;;13.00;7.10;;;9.50;99.90;;;;;;5032103;28;37146;-71
2021/10/24 09:14:55;;;;;;;13.10;8.80;;;9.60;99.90;;;;;;5030278;28;39551;-70
2021/10/24 09:17:24;;;;;;;17.23;9.63;;;9.60;99.90;;;;;;5007379;28;37613;-71
2021/10/24 09:19:53;;;;;;;16.73;8.67;;;9.60;99.90;;;;;;5011994;28;39683;-71
2021/10/24 09:22:23;;;;;;;11.03;8.13;;;9.70;99.90;;;;;;5022753;28;38205;-71
2021/10/24 09:25:01;;;;;;;13.90;8.20;;;9.80;99.90;;;;;;5027749;28;38976;-70
2021/10/24 09:27:29;;;;;;;14.57;8.47;;;9.80;99.90;;;;;;5026475;28;48928;-70
2021/10/24 09:30:02;;;;;;;11.67;7.83;;;9.90;99.90;;;;;;5020555;28;38484;-70
2021/10/24 09:32:49;;;;;;;10.50;8.13;;;10.00;99.90;;;;;;5031315;28;46573;-70
2021/10/24 09:35:16;;;;;;;11.90;7.83;;;10.00;99.90;;;;;;5021473;28;38859;-71
2021/10/24 09:37:46;;;;;;;10.87;8.40;;;10.10;99.90;;;;;;4996730;28;40118;-70
2021/10/24 09:40:16;;;;;;;11.13;8.13;;;10.10;99.90;;;;;;5010363;28;38769;-71
2021/10/24 09:42:43;;;;;;;16.37;8.30;;;10.20;99.90;;;;;;5035473;28;37995;-70
2021/10/24 09:45:14;;;;;;;10.23;7.27;;;10.20;99.90;;;;;;5029802;28;37741;-70
2021/10/24 09:47:43;;;;;;;15.10;8.40;;;10.30;99.90;;;;;;5014496;28;39281;-70
2021/10/24 09:50:32;;;;;;;15.97;8.00;;;10.40;99.90;;;;;;5014643;28;36750;-71
2021/10/24 09:53:22;;;;;;;15.57;7.57;;;10.50;99.90;;;;;;5021352;28;38161;-70
2021/10/24 09:56:00;;;;;;;10.57;8.00;;;10.60;99.90;;;;;;5015506;28;47229;-71
2021/10/24 09:58:29;;;;;;;12.40;7.17;;;10.70;99.90;;;;;;5010074;28;38752;-71
2021/10/24 10:00:56;;;;;;;9.63;6.77;;;10.70;99.90;;;;;;5012175;28;38184;-70
2021/10/24 10:03:24;;;;;;;12.90;6.60;;;10.70;99.90;;;;;;5013126;28;37492;-71
2021/10/24 10:05:51;;;;;;;13.20;7.27;;;10.80;99.90;;;;;;5009781;28;39120;-70
2021/10/24 10:08:20;;;;;;;11.50;7.37;;;10.80;99.90;;;;;;5018661;28;39778;-71
2021/10/24 10:11:10;;;;;;;11.57;7.57;;;10.80;99.90;;;;;;5017237;28;39233;-71
2021/10/24 10:13:42;;;;;;;11.53;6.70;;;10.90;99.90;;;;;;5006159;28;46937;-70
2021/10/24 10:16:13;;;;;;;11.85;7.70;;;10.90;99.90;;;;;;5015652;28;39630;-71
2021/10/24 10:18:58;;;;;;;8.05;6.78;;;10.90;99.90;;;;;;5012997;28;38406;-71
2021/10/24 10:21:30;;;;;;;13.70;7.23;;;11.00;99.90;;;;;;5015837;28;39310;-72
2021/10/24 10:23:56;;;;;;;10.82;6.82;;;11.10;99.90;;;;;;5010528;28;36031;-73
2021/10/24 10:26:40;;;;;;;12.20;7.37;;;11.30;99.90;;;;;;5010270;28;40853;-73
2021/10/24 10:29:12;;;;;;;10.77;7.00;;;11.40;99.90;;;;;;5016725;28;37347;-73
2021/10/24 10:31:39;;;;;;;13.13;7.17;;;11.50;99.90;;;;;;5017183;28;37568;-73
2021/10/24 10:34:08;;;;;;;11.87;7.10;;;11.50;99.90;;;;;;5008200;28;37195;-73
2021/10/24 10:36:47;;;;;;;9.43;6.67;;;11.50;99.90;;;;;;5007404;28;39172;-73
2021/10/24 10:39:34;;;;;;;10.10;6.37;;;11.60;99.90;;;;;;5013373;28;37879;-72
2021/10/24 10:42:28;;;;;;;10.47;6.93;;;11.70;99.90;;;;;;5009809;28;39800;-73
2021/10/24 10:45:25;;;;;;;10.23;6.40;;;11.70;99.90;;;;;;5014357;28;48673;-72
2021/10/24 10:47:55;;;;;;;7.03;6.23;;;11.80;99.90;;;;;;5006655;28;47315;-73
2021/10/24 10:50:28;;;;;;;9.33;6.57;;;11.80;99.90;;;;;;5009189;28;38937;-71
2021/10/24 10:53:01;;;;;;;11.23;6.78;;;11.90;99.90;;;;;;5009713;28;38830;-72
2021/10/24 10:55:56;;;;;;;12.80;6.07;;;12.00;99.90;;;;;;5007788;28;47546;-73
2021/10/24 10:58:47;;;;;;;9.60;6.37;;;12.10;99.90;;;;;;5008663;28;39655;-73
2021/10/24 11:01:31;;;;;;;9.73;5.97;;;12.20;99.90;;;;;;4998016;28;39162;-73
2021/10/24 11:04:17;;;;;;;9.00;6.22;;;12.20;99.90;;;;;;5021690;28;39293;-73
2021/10/24 11:06:52;;;;;;;7.60;5.85;;;12.30;99.90;;;;;;5001164;28;47430;-73
2021/10/24 11:09:45;;;;;;;9.95;6.20;;;12.40;99.90;;;;;;5035571;28;39039;-73
2021/10/24 11:12:31;;;;;;;;;;;12.40;99.90;;;;;;5018037;28;40558;-73
2021/10/24 11:15:09;;;;;;;10.45;5.85;;;12.50;99.90;;;;;;5018097;28;36892;-73
2021/10/24 11:17:38;;;;;;;6.95;5.70;;;12.70;99.90;;;;;;5028234;28;49007;-73
2021/10/24 11:20:20;;;;;;;10.07;5.97;;;12.70;99.90;;;;;;5038964;28;40056;-73
2021/10/24 11:22:58;;;;;;;12.63;5.50;;;12.90;99.90;;;;;;5017513;28;39481;-73
2021/10/24 11:25:31;;;;;;;9.30;6.50;;;13.00;99.90;;;;;;5010667;28;39294;-73
2021/10/24 11:27:58;;;;;;;;;;;12.90;99.90;;;;;;5011649;28;38019;-73
2021/10/24 11:30:25;;;;;;;7.63;5.85;;;12.90;99.90;;;;;;5034038;28;38683;-73
2021/10/24 11:32:55;;;;;;;7.15;5.47;;;12.90;99.90;;;;;;4999371;28;39386;-73
2021/10/24 11:35:22;;;;;;;14.25;5.75;;;13.10;99.90;;;;;;5004826;28;40159;-73
2021/10/24 11:37:54;;;;;;;9.95;5.60;;;13.10;99.90;;;;;;5024202;28;36979;-72
2021/10/24 11:40:23;;;;;;;10.13;5.15;;;13.20;99.90;;;;;;5026138;28;38624;-73
2021/10/24 11:43:22;;;;;;;8.85;4.85;;;13.30;99.90;;;;;;5010846;28;37743;-73
2021/10/24 11:45:51;;;;;;;9.60;5.03;;;13.50;99.90;;;;;;5024016;28;47366;-73
2021/10/24 11:48:24;;;;;;;6.57;4.65;;;13.70;99.90;;;;;;5017409;28;38560;-73
2021/10/24 11:50:54;;;;;;;9.00;5.43;;;13.80;99.90;;;;;;5012786;28;40863;-72
2021/10/24 11:53:56;;;;;;;13.88;5.60;;;13.90;99.90;;;;;;5013873;28;39349;-72
2021/10/24 11:59:13;;;;;;;12.80;5.97;;;13.90;99.90;;;;;;5009172;28;38459;-72
2021/10/24 12:01:40;;;;;;;9.52;4.70;;;14.00;99.90;;;;;;5019138;28;47351;-73
2021/10/24 12:04:09;;;;;;;7.28;5.32;;;14.10;99.90;;;;;;5012488;28;38542;-73
2021/10/24 12:06:57;;;;;;;8.35;5.28;;;14.10;99.90;;;;;;5035034;28;39504;-73
2021/10/24 12:09:44;;;;;;;10.82;5.30;;;13.90;99.90;;;;;;5031687;28;20081;-73
2021/10/24 12:12:14;;;;;;;8.55;5.22;;;13.90;99.90;;;;;;5020158;28;39171;-73
2021/10/24 12:15:02;;;;;;;10.85;5.32;;;13.90;99.90;;;;;;5033883;28;39761;-73
2021/10/24 12:17:37;;;;;;;8.60;5.97;;;14.00;99.90;;;;;;5012672;28;38759;-73
2021/10/24 12:20:19;;;;;;;7.22;5.47;;;14.00;99.90;;;;;;5024944;28;37312;-73
2021/10/24 12:22:48;;;;;;;9.75;5.32;;;14.00;99.90;;;;;;5015822;28;48164;-73
2021/10/24 12:25:18;;;;;;;7.32;4.35;;;14.10;99.90;;;;;;4999991;28;40025;-73
2021/10/24 12:27:46;;;;;;;7.78;4.95;;;14.10;99.90;;;;;;5011518;28;39019;-73
2021/10/24 12:30:18;;;;;;;7.55;4.47;;;14.20;99.90;;;;;;5014625;28;38836;-73
2021/10/24 12:32:59;;;;;;;6.80;4.82;;;14.10;99.90;;;;;;5027587;28;40646;-73
2021/10/24 12:35:26;;;;;;;7.50;4.43;;;14.10;99.90;;;;;;5012269;28;39761;-73
2021/10/24 12:38:04;;;;;;;11.60;5.10;;;14.20;99.90;;;;;;5013682;28;39189;-71
2021/10/24 12:40:32;;;;;;;9.50;4.50;;;14.30;99.90;;;;;;5016193;28;48246;-71
2021/10/24 12:43:05;;;;;;;8.52;4.90;;;14.40;99.90;;;;;;5034292;28;38854;-71
2021/10/24 12:46:00;;;;;;;7.20;4.57;;;14.40;99.90;;;;;;5005838;28;47154;-74
2021/10/24 12:48:46;;;;;;;9.00;4.30;;;14.20;99.90;;;;;;5006385;28;38249;-71
2021/10/24 12:51:23;;;;;;;7.85;4.10;;;14.10;99.90;;;;;;5016574;28;37184;-72